Time;durP1;ratioP1;P1;durP2;ratioP2;P2;SDS_P1;SDS_P2;PMS_P1;PMS_P2;Temp;Humidity;BMP_temperature;BMP_pressure;BME280_temperature;BME280_humidity;BME280_pressure;Samples;Min_cycle;Max_cycle;Signal;HPM_P1;HPM_P2
2023/05/09 00:01:10;;;;;;;1.50;1.40;;;;;;;;;;10436839;28;20222;-73
2023/05/09 00:06:12;;;;;;;3.08;1.73;;;;;;;;;;10434328;28;20265;-74
2023/05/09 00:11:13;;;;;;;1.90;1.63;;;;;;;;;;10433578;28;20219;-75
2023/05/09 00:16:14;;;;;;;2.17;1.73;;;;;;;;;;10439899;28;20215;-75
2023/05/09 00:21:15;;;;;;;2.63;1.85;;;;;;;;;;10443927;28;20731;-74
2023/05/09 00:26:17;;;;;;;2.03;1.85;;;;;;;;;;10435509;28;20737;-74
2023/05/09 00:31:18;;;;;;;1.95;1.80;;;;;;;;;;10407681;28;20239;-75
2023/05/09 00:36:19;;;;;;;2.05;1.42;;;;;;;;;;10437675;28;20218;-74
2023/05/09 00:41:20;;;;;;;2.30;2.20;;;;;;;;;;10411916;28;20238;-74
2023/05/09 00:46:21;;;;;;;4.40;2.33;;;;;;;;;;10434916;28;20219;-75
2023/05/09 00:51:23;;;;;;;2.40;2.20;;;;;;;;;;10441521;28;20299;-75
2023/05/09 00:56:24;;;;;;;2.90;2.47;;;;;;;;;;10435669;28;20221;-74
2023/05/09 01:01:25;;;;;;;2.13;2.03;;;;;;;;;;10439557;28;20849;-75
2023/05/09 01:06:40;;;;;;;8.27;2.60;;;;;;;;;;10425496;28;20210;-75
2023/05/09 01:11:48;;;;;;;3.33;2.20;;;;;;;;;;10432266;28;20305;-76
2023/05/09 01:16:52;;;;;;;2.05;1.92;;;;;;;;;;10435563;28;21564;-75
2023/05/09 01:21:56;;;;;;;2.38;2.00;;;;;;;;;;10438046;28;20307;-74
2023/05/09 01:27:00;;;;;;;2.20;2.05;;;;;;;;;;10408170;28;20210;-75
2023/05/09 01:32:03;;;;;;;2.28;2.08;;;;;;;;;;10435497;28;20214;-75
2023/05/09 01:37:05;;;;;;;2.20;2.10;;;;;;;;;;10437110;28;20918;-74
2023/05/09 01:42:07;;;;;;;2.33;2.10;;;;;;;;;;10438797;28;20217;-74
2023/05/09 01:47:09;;;;;;;1.98;1.95;;;;;;;;;;10435479;28;20219;-74
2023/05/09 01:52:13;;;;;;;2.30;2.10;;;;;;;;;;10426070;28;20309;-76
2023/05/09 01:57:14;;;;;;;2.78;1.67;;;;;;;;;;10451236;28;20224;-75
2023/05/09 02:02:15;;;;;;;2.47;2.38;;;;;;;;;;10427479;28;20237;-73
2023/05/09 02:07:18;;;;;;;2.28;2.10;;;;;;;;;;10430200;28;20242;-75
2023/05/09 02:12:19;;;;;;;2.42;2.38;;;;;;;;;;10426985;28;20217;-73
2023/05/09 02:17:20;;;;;;;2.60;2.47;;;;;;;;;;10424266;28;20226;-73
2023/05/09 02:22:21;;;;;;;2.28;2.17;;;;;;;;;;10417685;28;20224;-72
2023/05/09 02:27:23;;;;;;;3.00;2.67;;;;;;;;;;10452672;28;20230;-73
2023/05/09 02:32:26;;;;;;;4.13;2.53;;;;;;;;;;10427089;28;20670;-73
2023/05/09 02:37:27;;;;;;;2.92;2.40;;;;;;;;;;10439963;28;20727;-74
2023/05/09 02:42:29;;;;;;;2.47;2.28;;;;;;;;;;10436583;28;20225;-74
2023/05/09 02:47:30;;;;;;;1.80;1.70;;;;;;;;;;10446480;28;20384;-75
2023/05/09 02:52:32;;;;;;;2.45;2.25;;;;;;;;;;10424916;28;20223;-74
2023/05/09 02:57:33;;;;;;;3.03;2.80;;;;;;;;;;10426341;28;20361;-72
2023/05/09 03:02:35;;;;;;;2.35;2.25;;;;;;;;;;10396908;28;20304;-75
2023/05/09 03:07:36;;;;;;;4.35;2.58;;;;;;;;;;10419277;28;20269;-75
2023/05/09 03:12:38;;;;;;;2.75;2.55;;;;;;;;;;10420782;28;20268;-74
2023/05/09 03:17:40;;;;;;;2.70;2.60;;;;;;;;;;10425323;28;20229;-75
2023/05/09 03:22:41;;;;;;;1.48;1.48;;;;;;;;;;10423734;28;20687;-74
2023/05/09 03:27:45;;;;;;;3.25;2.95;;;;;;;;;;10414912;28;20353;-75
2023/05/09 03:32:49;;;;;;;2.80;2.60;;;;;;;;;;10425669;28;20215;-74
2023/05/09 03:37:50;;;;;;;2.15;1.33;;;;;;;;;;10424815;28;21012;-75
2023/05/09 03:42:51;;;;;;;2.75;2.65;;;;;;;;;;10424105;28;21207;-75
2023/05/09 03:47:52;;;;;;;3.28;3.08;;;;;;;;;;10420486;28;20982;-74
2023/05/09 03:52:54;;;;;;;1.95;1.83;;;;;;;;;;10410791;28;20222;-73
2023/05/09 03:57:55;;;;;;;2.78;2.63;;;;;;;;;;10399353;28;20221;-74
2023/05/09 04:02:57;;;;;;;1.67;1.65;;;;;;;;;;10432485;28;20218;-73
2023/05/09 04:08:06;;;;;;;2.30;2.13;;;;;;;;;;10422744;28;20261;-74
2023/05/09 04:13:07;;;;;;;5.95;2.47;;;;;;;;;;10414712;28;20280;-73
2023/05/09 04:18:09;;;;;;;3.03;2.90;;;;;;;;;;10415295;28;20210;-72
2023/05/09 04:23:10;;;;;;;3.63;2.80;;;;;;;;;;10412260;28;20221;-74
2023/05/09 04:28:12;;;;;;;5.57;2.50;;;;;;;;;;10418824;28;20317;-74
2023/05/09 04:33:13;;;;;;;2.75;2.65;;;;;;;;;;10412769;28;20590;-74
2023/05/09 04:38:16;;;;;;;2.72;2.50;;;;;;;;;;10407635;28;20268;-74
2023/05/09 04:43:18;;;;;;;3.00;2.75;;;;;;;;;;10417455;28;20223;-76
2023/05/09 04:48:19;;;;;;;2.72;2.50;;;;;;;;;;10415219;28;20309;-74
2023/05/09 04:53:20;;;;;;;2.22;2.03;;;;;;;;;;10419216;28;20218;-73
2023/05/09 04:58:24;;;;;;;2.85;2.63;;;;;;;;;;10402634;28;20763;-73
2023/05/09 05:03:25;;;;;;;2.30;2.20;;;;;;;;;;10413256;28;20214;-74
2023/05/09 05:08:26;;;;;;;2.22;2.13;;;;;;;;;;10414933;28;20224;-74
2023/05/09 05:13:28;;;;;;;2.67;2.58;;;;;;;;;;10406964;28;20226;-73
2023/05/09 05:18:32;;;;;;;3.08;2.88;;;;;;;;;;10394007;28;20788;-75
2023/05/09 05:23:33;;;;;;;2.63;2.53;;;;;;;;;;10416716;28;20214;-75
2023/05/09 05:28:34;;;;;;;2.92;2.72;;;;;;;;;;10419518;28;20240;-74
2023/05/09 05:33:37;;;;;;;1.75;1.65;;;;;;;;;;10401076;28;20223;-75
2023/05/09 05:38:38;;;;;;;3.35;2.78;;;;;;;;;;10406447;28;20218;-75
2023/05/09 05:43:39;;;;;;;3.00;2.80;;;;;;;;;;10437820;28;20221;-74
2023/05/09 05:48:40;;;;;;;2.70;2.58;;;;;;;;;;10416628;28;20230;-72
2023/05/09 05:53:42;;;;;;;2.03;1.92;;;;;;;;;;10424860;28;20265;-72
2023/05/09 05:58:44;;;;;;;2.38;2.28;;;;;;;;;;10412628;28;20214;-73
2023/05/09 06:03:45;;;;;;;2.55;2.35;;;;;;;;;;10406829;28;20272;-75
2023/05/09 06:08:50;;;;;;;2.00;1.90;;;;;;;;;;10416832;28;20216;-75
2023/05/09 06:13:51;;;;;;;3.75;2.55;;;;;;;;;;10433309;28;20298;-75
2023/05/09 06:18:53;;;;;;;2.58;2.38;;;;;;;;;;10410130;28;20219;-74
2023/05/09 06:23:55;;;;;;;2.50;2.40;;;;;;;;;;10426465;28;20219;-75
2023/05/09 06:28:56;;;;;;;4.65;2.47;;;;;;;;;;10406606;28;20214;-75
2023/05/09 06:33:57;;;;;;;2.55;2.35;;;;;;;;;;10430049;28;20214;-75
2023/05/09 06:38:58;;;;;;;2.88;2.40;;;;;;;;;;10429737;28;20213;-74
2023/05/09 06:44:01;;;;;;;3.60;1.67;;;;;;;;;;10465854;28;20645;-75
2023/05/09 06:49:02;;;;;;;3.63;1.23;;;;;;;;;;10445115;28;20611;-74
2023/05/09 06:54:03;;;;;;;5.45;2.25;;;;;;;;;;10452500;28;20240;-75
2023/05/09 06:59:04;;;;;;;2.22;2.13;;;;;;;;;;10421113;28;20229;-75
2023/05/09 07:04:05;;;;;;;2.35;2.22;;;;;;;;;;10443995;28;20718;-76
2023/05/09 07:09:07;;;;;;;3.63;3.10;;;;;;;;;;10406167;28;20217;-76
2023/05/09 07:14:08;;;;;;;5.22;2.58;;;;;;;;;;10435113;28;20219;-77
2023/05/09 07:19:09;;;;;;;2.60;2.50;;;;;;;;;;10445520;28;20220;-76
2023/05/09 07:24:10;;;;;;;2.67;2.00;;;;;;;;;;10449880;28;20844;-74
2023/05/09 07:29:12;;;;;;;5.15;1.65;;;;;;;;;;10389348;28;20858;-73
2023/05/09 07:34:15;;;;;;;2.17;1.98;;;;;;;;;;10420892;28;20214;-75
2023/05/09 07:39:16;;;;;;;3.67;2.00;;;;;;;;;;10417963;28;20897;-75
2023/05/09 07:44:17;;;;;;;2.70;2.33;;;;;;;;;;10446564;28;20280;-76
2023/05/09 07:49:18;;;;;;;1.88;1.73;;;;;;;;;;10449014;28;20300;-76
2023/05/09 07:54:19;;;;;;;1.92;1.83;;;;;;;;;;10450393;28;20291;-76
2023/05/09 07:59:20;;;;;;;2.10;2.10;;;;;;;;;;10453923;28;20224;-77
2023/05/09 08:04:21;;;;;;;1.73;1.67;;;;;;;;;;10445449;28;20692;-77
2023/05/09 08:09:22;;;;;;;2.40;2.28;;;;;;;;;;10426901;28;20225;-77
2023/05/09 08:14:23;;;;;;;3.33;1.88;;;;;;;;;;10431981;28;20226;-77
2023/05/09 08:19:25;;;;;;;1.88;1.77;;;;;;;;;;10411803;28;20265;-76
2023/05/09 08:24:26;;;;;;;2.42;2.33;;;;;;;;;;10440544;28;20230;-77
2023/05/09 08:29:27;;;;;;;2.10;2.00;;;;;;;;;;10444579;28;20306;-76
2023/05/09 08:34:33;;;;;;;1.88;1.77;;;;;;;;;;10422961;28;20211;-76
2023/05/09 08:39:34;;;;;;;1.48;1.48;;;;;;;;;;10425454;28;20249;-76
2023/05/09 08:44:37;;;;;;;3.30;2.08;;;;;;;;;;10415773;28;20612;-75
2023/05/09 08:49:40;;;;;;;1.92;1.83;;;;;;;;;;10433931;28;20719;-75
2023/05/09 08:54:41;;;;;;;1.77;1.67;;;;;;;;;;10423215;28;20263;-75
2023/05/09 08:59:44;;;;;;;1.83;1.70;;;;;;;;;;10427488;28;20297;-76
2023/05/09 09:04:45;;;;;;;1.85;1.75;;;;;;;;;;10450471;28;20214;-76
2023/05/09 09:09:48;;;;;;;2.28;1.15;;;;;;;;;;10451201;28;20226;-77
2023/05/09 09:14:52;;;;;;;1.27;1.27;;;;;;;;;;10422574;28;20218;-77
2023/05/09 09:19:55;;;;;;;2.47;1.73;;;;;;;;;;10415051;28;20214;-74
2023/05/09 09:24:56;;;;;;;4.47;1.42;;;;;;;;;;10425816;28;20233;-77
2023/05/09 09:30:09;;;;;;;0.80;0.80;;;;;;;;;;10444867;28;20217;-77
2023/05/09 09:35:11;;;;;;;1.58;1.23;;;;;;;;;;10420518;28;20218;-77
2023/05/09 09:40:13;;;;;;;1.67;1.00;;;;;;;;;;10448175;28;20207;-76
2023/05/09 09:45:18;;;;;;;1.20;1.20;;;;;;;;;;10456477;28;20397;-77
2023/05/09 09:50:22;;;;;;;1.10;0.80;;;;;;;;;;10419988;28;20215;-75
2023/05/09 09:55:24;;;;;;;0.98;0.98;;;;;;;;;;10425370;28;20222;-77
2023/05/09 10:00:26;;;;;;;1.20;1.10;;;;;;;;;;10410848;28;20619;-77
2023/05/09 10:05:28;;;;;;;1.23;1.13;;;;;;;;;;10433621;28;20245;-75
2023/05/09 10:10:31;;;;;;;1.30;1.10;;;;;;;;;;10425817;28;20333;-77
2023/05/09 10:15:32;;;;;;;2.78;1.48;;;;;;;;;;10420496;28;20230;-75
2023/05/09 10:20:33;;;;;;;1.00;1.00;;;;;;;;;;10448721;28;20616;-75
2023/05/09 10:25:47;;;;;;;1.05;0.98;;;;;;;;;;10411603;28;20786;-76
2023/05/09 10:31:05;;;;;;;1.13;1.10;;;;;;;;;;10447059;28;20618;-75
2023/05/09 10:36:06;;;;;;;3.22;1.20;;;;;;;;;;10417795;28;20253;-75
2023/05/09 10:41:09;;;;;;;0.90;0.90;;;;;;;;;;10420383;28;20213;-74
2023/05/09 10:46:14;;;;;;;0.90;0.90;;;;;;;;;;10407340;28;20249;-76
2023/05/09 10:51:15;;;;;;;1.15;1.15;;;;;;;;;;10432661;28;20275;-76
2023/05/09 10:56:22;;;;;;;1.08;1.08;;;;;;;;;;10418050;28;20218;-75
2023/05/09 11:01:31;;;;;;;0.88;0.88;;;;;;;;;;10446690;28;20223;-76
2023/05/09 11:06:42;;;;;;;0.88;0.88;;;;;;;;;;10413778;28;20314;-79
2023/05/09 11:11:53;;;;;;;1.30;0.98;;;;;;;;;;10432041;28;20215;-75
2023/05/09 11:17:05;;;;;;;1.05;0.95;;;;;;;;;;10451458;28;20230;-76
2023/05/09 11:22:13;;;;;;;1.38;0.80;;;;;;;;;;10449533;28;20226;-75
2023/05/09 11:27:15;;;;;;;2.50;1.25;;;;;;;;;;10412224;28;20222;-75
2023/05/09 11:32:16;;;;;;;2.33;0.85;;;;;;;;;;10428995;28;20238;-76
2023/05/09 11:37:22;;;;;;;1.33;1.33;;;;;;;;;;10444426;28;20214;-77
2023/05/09 11:42:23;;;;;;;1.83;1.38;;;;;;;;;;10445986;28;20320;-74
2023/05/09 11:47:25;;;;;;;1.30;1.30;;;;;;;;;;10428211;28;20221;-77
2023/05/09 11:52:26;;;;;;;2.55;1.15;;;;;;;;;;10417727;28;20263;-76
2023/05/09 11:57:28;;;;;;;2.53;1.27;;;;;;;;;;10407010;28;20221;-75
2023/05/09 12:02:29;;;;;;;1.20;1.20;;;;;;;;;;10429048;28;20225;-76
2023/05/09 12:07:30;;;;;;;1.20;1.10;;;;;;;;;;10424514;28;20222;-76
2023/05/09 12:12:33;;;;;;;1.00;1.00;;;;;;;;;;10431543;28;20304;-74
2023/05/09 12:17:35;;;;;;;2.40;0.90;;;;;;;;;;10414350;28;20223;-76
2023/05/09 12:22:36;;;;;;;1.25;1.25;;;;;;;;;;10419606;28;20218;-72
2023/05/09 12:27:38;;;;;;;3.15;0.88;;;;;;;;;;10395851;28;20309;-76
2023/05/09 12:32:40;;;;;;;1.25;1.25;;;;;;;;;;10428691;28;20245;-76
2023/05/09 12:37:54;;;;;;;1.20;1.17;;;;;;;;;;10422792;28;20229;-76
2023/05/09 12:43:01;;;;;;;2.88;1.23;;;;;;;;;;10446425;28;20230;-76
2023/05/09 12:48:03;;;;;;;1.00;1.00;;;;;;;;;;10429778;28;20215;-77
2023/05/09 12:53:05;;;;;;;1.17;0.93;;;;;;;;;;10409842;28;20225;-75
2023/05/09 12:58:06;;;;;;;0.98;0.98;;;;;;;;;;10448489;28;21206;-77
2023/05/09 13:03:19;;;;;;;0.77;0.77;;;;;;;;;;10426110;28;20222;-74
2023/05/09 13:08:21;;;;;;;1.02;1.02;;;;;;;;;;10419054;28;20724;-77
2023/05/09 13:13:25;;;;;;;0.75;0.75;;;;;;;;;;10426220;28;20217;-77
2023/05/09 13:18:26;;;;;;;0.77;0.77;;;;;;;;;;10442213;28;20328;-79
2023/05/09 13:23:27;;;;;;;4.25;0.90;;;;;;;;;;10438380;28;20954;-77
2023/05/09 13:28:28;;;;;;;1.65;0.77;;;;;;;;;;10445697;28;20215;-79
2023/05/09 13:33:29;;;;;;;0.82;0.77;;;;;;;;;;10443201;28;20271;-77
2023/05/09 13:38:31;;;;;;;0.90;0.90;;;;;;;;;;10443204;28;20214;-76
2023/05/09 13:43:41;;;;;;;0.95;0.75;;;;;;;;;;10445846;28;20214;-76
2023/05/09 13:48:43;;;;;;;1.38;1.27;;;;;;;;;;10454676;28;20229;-78
2023/05/09 13:53:47;;;;;;;1.50;1.10;;;;;;;;;;10423197;28;20224;-77
2023/05/09 13:58:51;;;;;;;0.80;0.80;;;;;;;;;;10407938;28;20245;-80
2023/05/09 14:03:53;;;;;;;1.70;0.70;;;;;;;;;;10433703;28;20223;-75
2023/05/09 14:08:57;;;;;;;0.70;0.70;;;;;;;;;;10435015;28;20223;-76
2023/05/09 14:13:58;;;;;;;4.03;0.85;;;;;;;;;;10458200;28;20765;-76
2023/05/09 14:19:03;;;;;;;4.78;0.70;;;;;;;;;;10417767;28;20203;-76
2023/05/09 14:24:04;;;;;;;0.70;0.70;;;;;;;;;;10412689;28;20820;-74
2023/05/09 14:29:06;;;;;;;0.68;0.68;;;;;;;;;;10418541;28;20332;-75
2023/05/09 14:34:08;;;;;;;0.70;0.70;;;;;;;;;;10450622;28;20221;-78
2023/05/09 14:39:09;;;;;;;0.80;0.70;;;;;;;;;;10421699;28;20246;-73
2023/05/09 14:44:10;;;;;;;1.02;0.88;;;;;;;;;;10417378;28;20226;-74
2023/05/09 14:49:15;;;;;;;2.33;1.00;;;;;;;;;;10416879;28;20233;-80
2023/05/09 14:54:16;;;;;;;1.15;0.60;;;;;;;;;;10408028;28;20300;-80
2023/05/09 14:59:17;;;;;;;0.70;0.70;;;;;;;;;;10429423;28;20711;-79
2023/05/09 15:04:18;;;;;;;1.08;0.60;;;;;;;;;;10453663;28;20219;-80
2023/05/09 15:09:20;;;;;;;0.60;0.60;;;;;;;;;;10415896;28;20238;-79
2023/05/09 15:14:21;;;;;;;2.45;0.70;;;;;;;;;;10449298;28;20313;-78
2023/05/09 15:19:22;;;;;;;0.70;0.70;;;;;;;;;;10444618;28;20260;-79
2023/05/09 15:24:23;;;;;;;0.70;0.70;;;;;;;;;;10424494;28;20250;-78
2023/05/09 15:29:24;;;;;;;0.70;0.70;;;;;;;;;;10404348;28;20218;-84
2023/05/09 15:34:25;;;;;;;1.00;1.00;;;;;;;;;;10459809;28;20333;-79
2023/05/09 15:39:26;;;;;;;0.73;0.73;;;;;;;;;;10444723;28;20224;-78
2023/05/09 15:44:27;;;;;;;0.85;0.85;;;;;;;;;;10440990;28;20276;-79
2023/05/09 15:49:28;;;;;;;1.98;0.80;;;;;;;;;;10458126;28;20226;-79
2023/05/09 15:54:30;;;;;;;1.10;1.10;;;;;;;;;;10413459;28;20234;-79
2023/05/09 15:59:31;;;;;;;2.72;0.60;;;;;;;;;;10416984;28;20744;-78
2023/05/09 16:04:34;;;;;;;1.42;0.75;;;;;;;;;;10431540;28;20288;-79
2023/05/09 16:09:36;;;;;;;0.90;0.90;;;;;;;;;;10412115;28;20222;-79
2023/05/09 16:14:37;;;;;;;1.52;1.42;;;;;;;;;;10415243;28;20218;-79
2023/05/09 16:19:38;;;;;;;1.58;0.65;;;;;;;;;;10422889;28;20700;-78
2023/05/09 16:24:39;;;;;;;1.10;1.10;;;;;;;;;;10422488;28;20301;-79
2023/05/09 16:29:40;;;;;;;2.10;0.70;;;;;;;;;;10429985;28;20594;-77
2023/05/09 16:34:41;;;;;;;1.88;0.70;;;;;;;;;;10402376;28;20271;-79
2023/05/09 16:39:42;;;;;;;0.70;0.52;;;;;;;;;;10438518;28;20252;-79
2023/05/09 16:44:43;;;;;;;1.30;0.70;;;;;;;;;;10440492;28;20222;-77
2023/05/09 16:49:44;;;;;;;1.35;0.50;;;;;;;;;;10440181;28;20273;-80
2023/05/09 16:54:45;;;;;;;0.63;0.63;;;;;;;;;;10416897;28;20223;-79
2023/05/09 16:59:46;;;;;;;0.55;0.55;;;;;;;;;;10434839;28;20211;-78
2023/05/09 17:04:47;;;;;;;1.67;0.70;;;;;;;;;;10376073;28;20223;-79
2023/05/09 17:09:49;;;;;;;1.20;0.50;;;;;;;;;;10390819;28;20210;-82
2023/05/09 17:14:50;;;;;;;0.63;0.63;;;;;;;;;;10400383;28;20839;-78
2023/05/09 17:19:51;;;;;;;0.52;0.50;;;;;;;;;;10403165;28;20214;-77
2023/05/09 17:24:52;;;;;;;1.63;0.70;;;;;;;;;;10432739;28;20214;-78
2023/05/09 17:29:53;;;;;;;1.25;0.68;;;;;;;;;;10440283;28;21303;-78
2023/05/09 17:34:54;;;;;;;1.75;0.70;;;;;;;;;;10432477;28;20995;-78
2023/05/09 17:39:55;;;;;;;1.25;0.80;;;;;;;;;;10417959;28;20214;-76
2023/05/09 17:44:56;;;;;;;0.80;0.80;;;;;;;;;;10431848;28;20218;-78
2023/05/09 17:49:57;;;;;;;0.77;0.77;;;;;;;;;;10417541;28;20238;-78
2023/05/09 17:54:58;;;;;;;0.60;0.60;;;;;;;;;;10428062;28;20241;-78
2023/05/09 17:59:59;;;;;;;1.08;0.93;;;;;;;;;;10433872;28;20836;-78
2023/05/09 18:05:14;;;;;;;1.13;0.73;;;;;;;;;;10436526;28;20242;-78
2023/05/09 18:10:15;;;;;;;0.73;0.73;;;;;;;;;;10435464;28;20639;-76
2023/05/09 18:15:16;;;;;;;3.28;1.00;;;;;;;;;;10436786;28;20210;-77
2023/05/09 18:20:17;;;;;;;2.38;0.70;;;;;;;;;;10450398;28;20206;-77
2023/05/09 18:25:18;;;;;;;1.88;0.75;;;;;;;;;;10444129;28;20212;-78
2023/05/09 18:30:20;;;;;;;0.90;0.90;;;;;;;;;;10427432;28;20206;-77
2023/05/09 18:35:21;;;;;;;2.22;0.98;;;;;;;;;;10439818;28;20768;-77
2023/05/09 18:40:22;;;;;;;1.15;0.90;;;;;;;;;;10431161;28;20228;-78
2023/05/09 18:45:24;;;;;;;0.63;0.63;;;;;;;;;;10427599;28;20222;-78
2023/05/09 18:50:25;;;;;;;1.20;0.80;;;;;;;;;;10414814;28;20302;-77
2023/05/09 18:55:26;;;;;;;0.85;0.85;;;;;;;;;;10422897;28;20641;-78
2023/05/09 19:00:27;;;;;;;1.58;0.90;;;;;;;;;;10445169;28;20219;-77
2023/05/09 19:05:28;;;;;;;1.52;0.80;;;;;;;;;;10432945;28;20226;-77
2023/05/09 19:10:30;;;;;;;1.83;1.13;;;;;;;;;;10447235;28;20218;-77
2023/05/09 19:15:32;;;;;;;3.08;0.90;;;;;;;;;;10414737;28;20227;-78
2023/05/09 19:20:33;;;;;;;2.45;1.30;;;;;;;;;;10424595;28;20218;-77
2023/05/09 19:25:35;;;;;;;0.93;0.90;;;;;;;;;;10425364;28;20277;-77
2023/05/09 19:30:36;;;;;;;2.03;0.90;;;;;;;;;;10448393;28;20218;-77
2023/05/09 19:35:38;;;;;;;0.90;0.90;;;;;;;;;;10437630;28;20894;-77
2023/05/09 19:40:39;;;;;;;2.53;1.38;;;;;;;;;;10444293;28;20676;-78
2023/05/09 19:45:40;;;;;;;2.33;0.93;;;;;;;;;;10431386;28;20213;-78
2023/05/09 19:50:41;;;;;;;1.02;1.02;;;;;;;;;;10424303;28;20225;-76
2023/05/09 19:55:45;;;;;;;0.93;0.93;;;;;;;;;;10445409;28;20813;-78
2023/05/09 20:00:47;;;;;;;1.30;1.20;;;;;;;;;;10444170;28;20218;-79
2023/05/09 20:05:48;;;;;;;2.47;1.50;;;;;;;;;;10429471;28;20280;-78
2023/05/09 20:10:49;;;;;;;4.68;1.40;;;;;;;;;;10424989;28;20833;-77
2023/05/09 20:15:51;;;;;;;1.50;1.13;;;;;;;;;;10420630;28;20222;-78
2023/05/09 20:20:53;;;;;;;0.90;0.90;;;;;;;;;;10423153;28;20209;-77
2023/05/09 20:25:54;;;;;;;1.30;1.30;;;;;;;;;;10441313;28;20218;-78
2023/05/09 20:30:56;;;;;;;1.48;1.38;;;;;;;;;;10440485;28;21360;-77
2023/05/09 20:35:56;;;;;;;1.08;1.08;;;;;;;;;;10430063;28;20217;-76
2023/05/09 20:40:58;;;;;;;1.42;1.42;;;;;;;;;;10427277;28;20218;-78
2023/05/09 20:46:00;;;;;;;1.20;1.20;;;;;;;;;;10426988;28;20219;-78
2023/05/09 20:51:02;;;;;;;1.55;1.45;;;;;;;;;;10436822;28;20272;-75
2023/05/09 20:56:03;;;;;;;1.05;1.05;;;;;;;;;;10417912;28;20210;-74
2023/05/09 21:01:04;;;;;;;1.50;1.50;;;;;;;;;;10425370;28;20214;-77
2023/05/09 21:06:05;;;;;;;1.80;1.48;;;;;;;;;;10455828;28;20769;-76
2023/05/09 21:11:06;;;;;;;1.50;1.25;;;;;;;;;;10458207;28;20218;-75
2023/05/09 21:16:07;;;;;;;1.42;1.40;;;;;;;;;;10460366;28;20324;-76
2023/05/09 21:21:08;;;;;;;1.60;1.60;;;;;;;;;;10442379;28;20685;-76
2023/05/09 21:26:09;;;;;;;2.03;1.92;;;;;;;;;;10452222;28;20363;-76
2023/05/09 21:31:10;;;;;;;1.92;1.60;;;;;;;;;;10462587;28;20587;-77
2023/05/09 21:36:11;;;;;;;2.00;1.90;;;;;;;;;;10463619;28;20226;-76
2023/05/09 21:41:12;;;;;;;1.30;1.20;;;;;;;;;;10453675;28;20712;-77
2023/05/09 21:46:13;;;;;;;1.50;1.50;;;;;;;;;;10455953;28;20213;-75
2023/05/09 21:51:14;;;;;;;3.35;1.52;;;;;;;;;;10457915;28;20312;-76
2023/05/09 21:56:15;;;;;;;1.98;1.77;;;;;;;;;;10456878;28;20232;-75
2023/05/09 22:01:18;;;;;;;3.08;1.83;;;;;;;;;;10450055;28;20218;-77
2023/05/09 22:06:19;;;;;;;1.42;1.42;;;;;;;;;;10439699;28;20847;-75
2023/05/09 22:11:21;;;;;;;1.42;1.33;;;;;;;;;;10431956;28;20601;-76
2023/05/09 22:16:22;;;;;;;1.67;1.67;;;;;;;;;;10437503;28;20209;-76
2023/05/09 22:21:22;;;;;;;1.27;1.27;;;;;;;;;;10432522;28;20307;-76
2023/05/09 22:26:23;;;;;;;1.70;1.65;;;;;;;;;;10412910;28;20214;-74
2023/05/09 22:31:25;;;;;;;1.70;1.60;;;;;;;;;;10449882;28;20264;-76
2023/05/09 22:36:26;;;;;;;1.25;1.25;;;;;;;;;;10438894;28;20279;-76
2023/05/09 22:41:27;;;;;;;1.40;1.40;;;;;;;;;;10451823;28;20267;-74
2023/05/09 22:46:28;;;;;;;1.95;1.58;;;;;;;;;;10437527;28;20250;-75
2023/05/09 22:51:29;;;;;;;1.15;1.08;;;;;;;;;;10432579;28;20650;-76
2023/05/09 22:56:30;;;;;;;1.67;1.67;;;;;;;;;;10430119;28;20330;-76
2023/05/09 23:01:31;;;;;;;2.47;1.55;;;;;;;;;;10438443;28;20211;-74
2023/05/09 23:06:32;;;;;;;1.48;1.38;;;;;;;;;;10451306;28;20276;-76
2023/05/09 23:11:33;;;;;;;1.90;1.80;;;;;;;;;;10437915;28;20650;-76
2023/05/09 23:16:34;;;;;;;1.13;1.13;;;;;;;;;;10433730;28;20744;-75
2023/05/09 23:21:35;;;;;;;1.50;1.50;;;;;;;;;;10409810;28;20211;-75
2023/05/09 23:26:36;;;;;;;1.90;1.80;;;;;;;;;;10443054;28;20921;-75
2023/05/09 23:31:37;;;;;;;2.28;1.50;;;;;;;;;;10451970;28;20364;-76
2023/05/09 23:36:38;;;;;;;1.67;1.58;;;;;;;;;;10434012;28;20217;-76
2023/05/09 23:41:39;;;;;;;1.50;1.50;;;;;;;;;;10450498;28;20365;-79
2023/05/09 23:46:40;;;;;;;2.10;2.00;;;;;;;;;;10442916;28;20214;-76
2023/05/09 23:51:41;;;;;;;1.77;1.67;;;;;;;;;;10443475;28;20226;-78
2023/05/09 23:56:42;;;;;;;1.92;1.92;;;;;;;;;;10450278;28;20220;-77
